createdAt,value
2018-09-01T08:06:11.833Z,99390.49
2018-09-01T09:00:31.312Z,99412.80
2018-09-01T09:03:00.180Z,99419.20
2018-09-01T09:05:28.846Z,99414.63
2018-09-01T09:07:58.780Z,99416.19
2018-09-01T09:10:27.033Z,99409.41
2018-09-01T09:12:56.044Z,99414.34
2018-09-01T09:15:25.276Z,99413.09
2018-09-01T09:17:54.228Z,99419.55
2018-09-01T09:23:02.392Z,99413.17
2018-09-01T09:25:31.285Z,99411.84
2018-09-01T09:28:06.856Z,99420.17
2018-09-01T09:30:35.556Z,99419.27
2018-09-01T09:33:12.486Z,99417.59
2018-09-01T09:38:23.940Z,99413.41
2018-09-01T09:40:53.798Z,99407.52
2018-09-01T09:43:27.673Z,99411.63
2018-09-01T09:45:56.701Z,99411.02
2018-09-01T09:48:26.188Z,99407.68
2018-09-01T09:50:56.056Z,99400.19
2018-09-01T09:53:24.657Z,99406.10
2018-09-01T09:55:53.004Z,99399.95
2018-09-01T09:58:24.692Z,99401.46
2018-09-01T10:00:59.101Z,99406.34
2018-09-01T10:03:28.948Z,99408.08
2018-09-01T10:05:57.950Z,99404.20
2018-09-01T10:08:28.732Z,99398.59
2018-09-01T10:10:57.154Z,99393.77
2018-09-01T10:18:24.025Z,99396.45
2018-09-01T10:20:52.834Z,99391.78
2018-09-01T10:23:21.886Z,99386.56
2018-09-01T10:25:50.767Z,99384.44
2018-09-01T10:28:19.201Z,99384.24
2018-09-01T10:30:54.968Z,99371.11
2018-09-01T10:33:23.403Z,99377.98
2018-09-01T10:38:33.662Z,99374.92
2018-09-01T10:41:02.160Z,99370.92
2018-09-01T10:43:30.342Z,99363.25
2018-09-01T10:45:58.625Z,99358.73
2018-09-01T10:48:27.931Z,99354.98
2018-09-01T10:50:56.551Z,99359.63
2018-09-01T10:53:25.011Z,99355.22
2018-09-01T10:55:53.304Z,99354.48
2018-09-01T10:58:21.611Z,99352.45
2018-09-01T11:00:49.946Z,99354.63
2018-09-01T11:03:19.750Z,99352.82
2018-09-01T11:05:48.812Z,99350.00
2018-09-01T11:08:17.575Z,99358.38
2018-09-01T11:10:46.008Z,99357.56
2018-09-01T11:13:15.323Z,99365.41
2018-09-01T11:15:43.916Z,99358.06
2018-09-01T11:18:12.383Z,99365.01
2018-09-01T11:20:40.529Z,99368.84
2018-09-01T11:23:09.032Z,99366.61
2018-09-01T11:25:37.167Z,99361.80
2018-09-01T11:28:05.329Z,99359.39
2018-09-01T11:30:33.435Z,99355.28
2018-09-01T11:33:01.584Z,99359.30
2018-09-01T11:35:29.701Z,99361.73
2018-09-01T11:38:01.884Z,99361.27
2018-09-01T11:40:29.984Z,99366.19
2018-09-01T11:42:59.027Z,99361.59
2018-09-01T11:45:27.063Z,99357.64
2018-09-01T11:47:55.627Z,99362.02
2018-09-01T11:50:23.797Z,99360.32
2018-09-01T11:52:51.932Z,99367.08
2018-09-01T11:55:20.135Z,99362.11
2018-09-01T11:57:48.279Z,99367.39
2018-09-01T12:00:16.404Z,99358.38
2018-09-01T12:02:44.560Z,99362.28
2018-09-01T12:05:12.674Z,99363.73
2018-09-01T12:07:40.848Z,99356.36
2018-09-01T12:10:10.043Z,99350.39
2018-09-01T12:12:38.638Z,99353.59
2018-09-01T12:15:06.782Z,99355.54
2018-09-01T12:17:36.390Z,99362.09
2018-09-01T12:20:04.523Z,99356.23
2018-09-01T12:22:32.999Z,99357.74
2018-09-01T12:25:01.117Z,99363.33
2018-09-01T12:27:29.221Z,99365.38
2018-09-01T12:29:57.355Z,99359.53
2018-09-01T12:32:25.898Z,99353.30
2018-09-01T12:34:54.023Z,99355.38
2018-09-01T12:37:22.148Z,99353.97
2018-09-01T12:39:50.356Z,99349.73
2018-09-01T12:42:18.805Z,99354.64
2018-09-01T12:44:46.947Z,99351.47
2018-09-01T12:47:15.047Z,99352.98
2018-09-01T12:49:43.812Z,99351.88
2018-09-01T12:52:12.161Z,99346.08
2018-09-01T12:54:40.379Z,99345.47
2018-09-01T12:57:08.915Z,99333.30
2018-09-01T12:59:37.055Z,99333.16
2018-09-01T13:02:05.167Z,99336.78
2018-09-01T13:04:38.785Z,99334.52
2018-09-01T13:07:07.200Z,99341.11
2018-09-01T13:15:42.669Z,99334.16
2018-09-01T13:18:11.293Z,99325.67
2018-09-01T13:20:39.928Z,99319.97
2018-09-01T13:23:09.384Z,99328.17
2018-09-01T13:25:38.049Z,99330.87
2018-09-01T13:28:06.309Z,99337.83
2018-09-01T13:51:55.339Z,99321.62
2018-09-01T13:54:24.048Z,99328.65
2018-09-01T13:56:52.310Z,99324.45
2018-09-01T13:59:20.467Z,99322.13
2018-09-01T14:01:48.658Z,99319.34
2018-09-01T14:04:17.108Z,99332.04
2018-09-01T14:06:45.305Z,99334.22
2018-09-01T14:09:13.474Z,99333.39
2018-09-01T14:11:41.645Z,99326.97
2018-09-01T14:14:10.190Z,99327.19
2018-09-01T14:16:38.371Z,99324.53
2018-09-01T14:19:07.268Z,99334.53
2018-09-01T14:21:35.745Z,99329.93
2018-09-01T14:24:04.729Z,99330.87
2018-09-01T14:26:33.557Z,99325.66
2018-09-01T14:29:01.732Z,99327.88
2018-09-01T14:31:29.940Z,99317.32
2018-09-01T14:33:58.188Z,99320.16
2018-09-01T14:36:27.430Z,99320.91
2018-09-01T14:38:55.721Z,99326.38
2018-09-01T14:41:23.931Z,99322.21
2018-09-01T14:43:52.090Z,99324.14
2018-09-01T14:46:20.258Z,99323.09
2018-09-01T14:48:48.442Z,99320.28
2018-09-01T14:51:16.888Z,99318.77
2018-09-01T14:53:45.102Z,99310.29
2018-09-01T14:56:13.199Z,99307.16
2018-09-01T14:58:41.302Z,99310.75
2018-09-01T15:01:09.411Z,99299.88
2018-09-01T15:03:37.562Z,99299.73
2018-09-01T15:06:05.784Z,99301.07
2018-09-01T15:08:33.901Z,99298.23
2018-09-01T15:11:02.011Z,99312.63
2018-09-01T15:25:42.322Z,99320.28
2018-09-01T15:28:10.465Z,99311.59
2018-09-01T15:30:38.596Z,99310.61
2018-09-01T15:33:06.730Z,99311.19
2018-09-01T15:35:34.874Z,99311.00
2018-09-01T15:38:03.010Z,99305.87
2018-09-01T15:40:34.403Z,99299.61
2018-09-01T15:43:02.806Z,99308.17
2018-09-01T15:45:31.564Z,99297.80
2018-09-01T15:47:59.713Z,99299.80
2018-09-01T15:50:27.815Z,99295.66
2018-09-01T15:52:57.556Z,99299.63
2018-09-01T16:41:09.387Z,99319.12
2018-09-01T16:43:37.492Z,99319.38
2018-09-01T16:46:05.583Z,99312.52
2018-09-01T16:48:35.440Z,99318.73
2018-09-01T16:51:03.592Z,99312.59
2018-09-01T16:53:31.705Z,99313.56
2018-09-01T16:55:59.891Z,99311.09
2018-09-01T16:58:28.345Z,99312.30
2018-09-01T17:00:56.635Z,99318.27
2018-09-01T17:03:24.746Z,99317.10
2018-09-01T17:05:52.832Z,99318.48
2018-09-01T17:08:20.947Z,99317.19
2018-09-01T17:10:49.039Z,99322.73
2018-09-01T17:13:17.133Z,99320.40
2018-09-01T17:37:07.424Z,99332.23
2018-09-01T17:39:36.831Z,99330.41
2018-09-01T17:42:05.170Z,99336.42
2018-09-01T17:44:33.332Z,99330.91
2018-09-01T17:47:01.637Z,99332.06
2018-09-01T17:49:29.973Z,99329.23
2018-09-01T17:51:58.181Z,99330.89
2018-09-01T17:54:26.360Z,99326.75
2018-09-01T17:56:54.584Z,99329.75
2018-09-01T18:05:29.033Z,99345.16
2018-09-01T18:07:57.963Z,99351.48
2018-09-01T18:10:26.302Z,99350.67
2018-09-01T18:15:57.698Z,99358.03
2018-09-01T18:18:25.919Z,99358.34
2018-09-01T18:20:54.165Z,99354.19
2018-09-01T18:23:22.430Z,99355.67
2018-09-01T18:25:50.643Z,99358.20
2018-09-01T18:28:18.767Z,99356.20
2018-09-01T18:30:46.881Z,99351.88
2018-09-01T18:33:15.074Z,99356.88
2018-09-01T18:35:45.115Z,99362.21
2018-09-01T18:38:13.220Z,99359.05
2018-09-01T18:40:41.463Z,99365.23
2018-09-01T18:43:09.773Z,99362.56
2018-09-01T18:48:40.246Z,99362.59
2018-09-01T18:54:11.357Z,99366.73
2018-09-01T18:56:39.765Z,99370.42
2018-09-01T18:59:08.064Z,99368.77
2018-09-01T19:01:36.327Z,99369.08
2018-09-01T19:04:04.568Z,99378.58
2018-09-01T19:06:32.917Z,99375.94
2018-09-01T19:09:01.069Z,99378.39
2018-09-01T19:11:29.368Z,99373.72
2018-09-01T19:23:06.033Z,99384.89
2018-09-01T19:25:34.242Z,99382.04
2018-09-01T19:43:20.395Z,99393.09
2018-09-01T19:45:49.065Z,99392.41
2018-09-01T19:48:17.311Z,99393.91
2018-09-01T19:50:46.138Z,99395.05
2018-09-01T19:53:14.322Z,99393.55
2018-09-01T19:55:42.505Z,99389.69
2018-09-01T19:58:10.592Z,99388.86
2018-09-01T20:00:38.704Z,99389.52
2018-09-01T20:03:06.815Z,99389.45
2018-09-01T20:05:35.013Z,99390.45
2018-09-01T20:08:03.156Z,99376.92
2018-09-01T20:10:31.276Z,99386.92
2018-09-01T20:12:59.417Z,99380.08
2018-09-01T20:15:27.603Z,99389.38
2018-09-01T20:17:55.942Z,99389.19
2018-09-01T20:20:24.196Z,99386.59
2018-09-01T20:22:54.555Z,99383.74
2018-09-01T20:25:23.433Z,99380.08
2018-09-01T20:27:52.340Z,99382.74
2018-09-01T20:33:24.560Z,99384.22
2018-09-01T20:35:57.849Z,99381.03
2018-09-01T20:38:27.557Z,99380.22
2018-09-01T20:40:56.802Z,99374.22
2018-09-01T20:43:25.453Z,99370.52
2018-09-01T20:45:53.804Z,99372.36
2018-09-01T20:48:21.961Z,99374.34
2018-09-01T20:50:51.791Z,99379.65
2018-09-01T20:53:20.200Z,99381.28
2018-09-01T20:55:48.492Z,99373.42
2018-09-01T20:58:16.613Z,99375.56
2018-09-01T21:00:45.682Z,99375.73
2018-09-01T21:03:13.803Z,99372.58
2018-09-01T21:05:41.933Z,99384.88
2018-09-01T21:08:10.047Z,99388.72
2018-09-01T21:10:38.219Z,99387.88
2018-09-01T21:13:06.319Z,99386.52
2018-09-01T21:15:35.273Z,99381.84
2018-09-01T21:18:03.378Z,99382.36
2018-09-01T21:20:31.555Z,99382.36
2018-09-01T21:22:59.693Z,99383.01
2018-09-01T21:25:28.115Z,99384.53
2018-09-01T21:27:57.197Z,99383.04
2018-09-01T21:30:25.319Z,99373.03
2018-09-01T21:32:54.471Z,99381.55
2018-09-01T21:35:23.256Z,99381.67
2018-09-01T21:37:51.384Z,99385.67
2018-09-01T21:40:19.561Z,99386.16
2018-09-01T21:42:47.892Z,99383.63
2018-09-01T21:45:20.530Z,99384.05
2018-09-01T21:47:48.749Z,99377.88
2018-09-01T21:50:17.324Z,99386.50
2018-09-01T21:55:44.618Z,99382.80
2018-09-01T21:58:12.890Z,99384.09
